createdAt,value
2024-03-14T00:00:19.366Z,10.70
2024-03-14T00:02:47.809Z,10.90
2024-03-14T00:05:15.761Z,11.20
2024-03-14T00:07:43.340Z,9.80
2024-03-14T00:10:11.513Z,10.90
2024-03-14T00:12:39.198Z,10.20
2024-03-14T00:15:07.725Z,11.10
2024-03-14T00:17:39.636Z,10.40
2024-03-14T00:20:13.258Z,11.80
2024-03-14T00:22:40.901Z,10.90
2024-03-14T00:25:11.423Z,11.10
2024-03-14T00:27:39.946Z,10.90
2024-03-14T00:30:12.574Z,10.60
2024-03-14T00:32:40.291Z,11.50
2024-03-14T00:35:09.900Z,12.60
2024-03-14T00:37:38.103Z,12.10
2024-03-14T00:40:10.731Z,12.60
2024-03-14T00:42:45.444Z,13.60
2024-03-14T00:45:16.453Z,15.20
2024-03-14T00:47:44.181Z,13.40
2024-03-14T00:50:11.817Z,12.70
2024-03-14T00:52:39.281Z,12.50
2024-03-14T00:55:11.084Z,12.40
2024-03-14T00:57:40.508Z,12.00
2024-03-14T01:00:13.579Z,12.20
2024-03-14T01:02:42.855Z,12.00
2024-03-14T01:05:13.070Z,12.00
2024-03-14T01:07:41.341Z,11.10
2024-03-14T01:10:08.771Z,12.30
2024-03-14T01:12:36.797Z,12.10
2024-03-14T01:15:07.546Z,11.30
2024-03-14T01:17:35.637Z,11.20
2024-03-14T01:20:12.018Z,11.40
2024-03-14T01:22:39.799Z,10.60
2024-03-14T01:25:07.543Z,11.20
2024-03-14T01:27:35.068Z,11.30
2024-03-14T01:30:02.664Z,11.70
2024-03-14T01:32:30.275Z,12.10
2024-03-14T01:34:57.691Z,11.80
2024-03-14T01:37:25.153Z,11.40
2024-03-14T01:39:52.950Z,10.00
2024-03-14T01:42:20.476Z,10.80
2024-03-14T01:45:07.057Z,11.40
2024-03-14T01:47:35.009Z,10.50
2024-03-14T01:50:07.317Z,10.50
2024-03-14T01:52:37.924Z,9.40
2024-03-14T01:55:05.509Z,8.90
2024-03-14T01:57:33.272Z,11.10
2024-03-14T02:00:01.618Z,11.90
2024-03-14T02:02:39.273Z,11.20
2024-03-14T02:05:12.782Z,10.60
2024-03-14T02:07:40.439Z,10.00
2024-03-14T02:10:09.614Z,11.30
2024-03-14T02:12:37.127Z,10.80
2024-03-14T02:15:04.886Z,10.50
2024-03-14T02:17:32.427Z,10.50
2024-03-14T02:19:59.942Z,10.20
2024-03-14T02:22:28.523Z,9.50
2024-03-14T02:24:55.870Z,11.20
2024-03-14T02:27:24.035Z,10.40
2024-03-14T02:29:51.497Z,10.90
2024-03-14T02:32:19.655Z,11.50
2024-03-14T02:34:47.028Z,10.70
2024-03-14T02:37:14.617Z,9.90
2024-03-14T02:39:42.092Z,10.00
2024-03-14T02:42:12.748Z,10.50
2024-03-14T02:44:40.293Z,8.50
2024-03-14T02:47:11.120Z,8.90
2024-03-14T02:49:39.738Z,9.50
2024-03-14T02:52:07.488Z,9.80
2024-03-14T02:54:35.033Z,10.80
2024-03-14T02:57:02.481Z,7.80
2024-03-14T02:59:32.178Z,7.00
2024-03-14T03:02:03.213Z,9.80
2024-03-14T03:04:32.459Z,6.80
2024-03-14T03:07:06.965Z,9.40
2024-03-14T03:09:38.998Z,9.30
2024-03-14T03:12:07.347Z,10.00
2024-03-14T03:14:34.902Z,8.50
2024-03-14T03:17:02.360Z,6.30
2024-03-14T03:19:29.874Z,11.70
2024-03-14T03:21:59.770Z,13.90
2024-03-14T03:24:27.428Z,12.30
2024-03-14T03:26:55.129Z,12.60
2024-03-14T03:29:22.971Z,9.80
2024-03-14T03:31:50.591Z,10.10
2024-03-14T03:34:24.815Z,10.60
2024-03-14T03:36:52.432Z,10.20
2024-03-14T03:39:20.425Z,9.70
2024-03-14T03:41:48.160Z,9.60
2024-03-14T03:44:15.961Z,9.90
2024-03-14T03:46:45.674Z,10.10
2024-03-14T03:49:14.125Z,10.20
2024-03-14T03:51:41.710Z,8.80
2024-03-14T03:54:10.488Z,9.70
2024-03-14T03:56:38.013Z,10.00
2024-03-14T03:59:09.605Z,11.10
2024-03-14T04:01:37.092Z,10.90
2024-03-14T04:04:04.635Z,6.30
2024-03-14T04:06:34.878Z,9.70
2024-03-14T04:09:03.047Z,10.20
2024-03-14T04:11:30.607Z,10.60
2024-03-14T04:13:59.421Z,11.20
2024-03-14T04:16:30.365Z,10.30
2024-03-14T04:18:57.934Z,11.20
2024-03-14T04:21:25.586Z,11.50
2024-03-14T04:23:53.163Z,11.30
2024-03-14T04:26:20.523Z,11.00
2024-03-14T04:28:47.998Z,10.20
2024-03-14T04:31:15.383Z,10.80
2024-03-14T04:33:43.280Z,13.40
2024-03-14T04:36:11.167Z,13.00
2024-03-14T04:38:41.612Z,13.20
2024-03-14T04:41:16.704Z,13.40
2024-03-14T04:43:48.459Z,12.00
2024-03-14T04:46:18.014Z,12.10
2024-03-14T04:48:47.013Z,12.60
2024-03-14T04:51:14.705Z,12.90
2024-03-14T04:53:42.591Z,13.60
2024-03-14T04:56:10.090Z,13.30
2024-03-14T04:58:39.146Z,13.60
2024-03-14T05:01:07.207Z,11.80
2024-03-14T05:03:35.113Z,12.20
2024-03-14T05:06:04.829Z,12.90
2024-03-14T05:08:32.511Z,13.90
2024-03-14T05:11:00.521Z,15.00
2024-03-14T05:13:29.262Z,15.80
2024-03-14T05:15:57.042Z,15.60
2024-03-14T05:18:25.208Z,15.70
2024-03-14T05:20:54.947Z,15.00
2024-03-14T05:23:22.583Z,16.50
2024-03-14T05:25:49.942Z,15.40
2024-03-14T05:28:18.103Z,14.70
2024-03-14T05:30:45.725Z,13.90
2024-03-14T05:33:13.306Z,12.70
2024-03-14T05:35:41.808Z,13.60
2024-03-14T05:38:10.171Z,13.30
2024-03-14T05:40:37.815Z,13.90
2024-03-14T05:43:05.363Z,13.90
2024-03-14T05:45:36.887Z,14.00
2024-03-14T05:48:11.037Z,14.80
2024-03-14T05:50:38.886Z,13.80
2024-03-14T05:53:06.755Z,13.90
2024-03-14T05:55:34.370Z,13.50
2024-03-14T05:58:01.718Z,13.80
2024-03-14T06:00:30.739Z,11.90
2024-03-14T06:02:58.536Z,13.60
2024-03-14T06:05:26.095Z,12.40
2024-03-14T06:07:53.634Z,12.60
2024-03-14T06:10:23.122Z,11.30
2024-03-14T06:12:51.161Z,12.90
2024-03-14T06:15:19.554Z,12.30
2024-03-14T06:17:52.759Z,9.30
2024-03-14T06:20:20.929Z,13.00
2024-03-14T06:22:48.498Z,10.40
2024-03-14T06:25:17.370Z,11.70
2024-03-14T06:27:45.193Z,12.00
2024-03-14T06:30:15.900Z,11.70
2024-03-14T06:32:48.100Z,12.20
2024-03-14T06:35:17.115Z,14.60
2024-03-14T06:37:44.801Z,13.80
2024-03-14T06:40:15.773Z,12.70
2024-03-14T06:42:43.338Z,11.80
2024-03-14T06:45:12.152Z,11.20
2024-03-14T06:47:42.222Z,11.80
2024-03-14T06:50:11.123Z,11.70
2024-03-14T06:52:39.158Z,12.30
2024-03-14T06:55:17.009Z,11.90
2024-03-14T06:57:47.061Z,12.50
2024-03-14T07:00:19.371Z,12.90
2024-03-14T07:02:47.156Z,12.30
2024-03-14T07:05:16.769Z,13.00
2024-03-14T07:07:48.034Z,12.10
2024-03-14T07:10:16.203Z,13.10
2024-03-14T07:12:48.076Z,13.00
2024-03-14T07:15:16.654Z,13.60
2024-03-14T07:17:44.417Z,11.90
2024-03-14T07:20:18.043Z,12.70
2024-03-14T07:22:47.482Z,14.20
2024-03-14T07:25:17.135Z,14.10
2024-03-14T07:27:47.720Z,17.30
2024-03-14T07:30:16.443Z,15.10
2024-03-14T07:32:44.920Z,13.60
2024-03-14T07:35:15.715Z,12.90
2024-03-14T07:37:47.116Z,12.60
2024-03-14T07:40:18.680Z,13.60
2024-03-14T07:42:47.529Z,12.80
2024-03-14T07:45:18.280Z,18.80
2024-03-14T07:47:47.066Z,19.10
2024-03-14T07:50:14.540Z,15.00
2024-03-14T07:52:42.004Z,15.00
2024-03-14T07:55:10.888Z,16.70
2024-03-14T07:57:38.621Z,21.90
2024-03-14T08:00:10.906Z,22.10
2024-03-14T08:02:40.619Z,22.50
2024-03-14T08:05:12.925Z,21.70
2024-03-14T08:07:40.304Z,20.50
2024-03-14T08:10:09.834Z,22.40
2024-03-14T08:12:37.335Z,20.70
2024-03-14T08:15:32.237Z,22.30
2024-03-14T08:18:00.947Z,19.60
2024-03-14T08:20:30.414Z,19.80
2024-03-14T08:22:57.946Z,20.10
2024-03-14T08:25:26.226Z,22.10
2024-03-14T08:27:54.828Z,22.10
2024-03-14T08:30:24.640Z,20.20
2024-03-14T08:32:53.319Z,20.30
2024-03-14T08:35:21.633Z,19.00
2024-03-14T08:37:49.033Z,17.60
2024-03-14T08:40:16.487Z,17.70
2024-03-14T08:42:48.871Z,14.60
2024-03-14T08:45:19.838Z,12.70
2024-03-14T08:47:47.779Z,11.20
2024-03-14T08:50:16.872Z,11.80
2024-03-14T08:52:46.189Z,13.80
2024-03-14T08:55:31.073Z,13.00
2024-03-14T08:58:01.170Z,13.70
2024-03-14T09:00:29.356Z,12.70
2024-03-14T09:03:01.390Z,13.20
2024-03-14T09:05:30.863Z,13.40
2024-03-14T09:07:58.596Z,13.10
2024-03-14T09:10:29.113Z,12.80
2024-03-14T09:12:57.187Z,11.60
2024-03-14T09:15:25.981Z,13.50
2024-03-14T09:17:53.754Z,13.10
2024-03-14T09:20:22.251Z,11.30
2024-03-14T09:22:57.046Z,12.50
2024-03-14T09:25:25.866Z,11.50
2024-03-14T09:27:53.720Z,11.10
2024-03-14T09:30:23.715Z,13.40
2024-03-14T09:32:52.375Z,12.80
2024-03-14T09:35:30.049Z,11.00
2024-03-14T09:37:58.817Z,11.30
2024-03-14T09:40:26.364Z,10.00
2024-03-14T09:42:58.309Z,11.40
2024-03-14T09:45:26.755Z,10.60
2024-03-14T09:47:58.184Z,10.60
2024-03-14T09:50:28.372Z,10.70
2024-03-14T09:52:56.986Z,11.60
2024-03-14T09:55:25.815Z,11.50
2024-03-14T09:57:55.022Z,12.20
2024-03-14T10:00:26.159Z,14.10
2024-03-14T10:02:59.785Z,10.70
2024-03-14T10:05:27.644Z,11.60
2024-03-14T10:07:58.872Z,13.50
2024-03-14T10:10:27.739Z,13.10
2024-03-14T10:12:55.933Z,11.20
2024-03-14T10:15:24.090Z,10.90
2024-03-14T10:17:54.876Z,13.20
2024-03-14T10:20:23.213Z,11.80
2024-03-14T10:22:51.036Z,11.60
2024-03-14T10:25:19.282Z,12.80
2024-03-14T10:27:57.684Z,11.60
2024-03-14T10:30:35.390Z,13.60
2024-03-14T10:33:06.117Z,13.50
2024-03-14T10:35:35.943Z,14.20
2024-03-14T10:38:03.379Z,12.10
2024-03-14T10:40:30.791Z,12.70
2024-03-14T10:42:58.812Z,11.70
2024-03-14T10:46:51.646Z,12.30
2024-03-14T10:49:23.745Z,12.20
2024-03-14T10:51:53.212Z,12.00
2024-03-14T10:54:23.282Z,12.80
2024-03-14T10:56:51.449Z,10.90
2024-03-14T10:59:21.029Z,11.20
2024-03-14T11:01:52.150Z,10.00
2024-03-14T11:04:21.577Z,9.10
2024-03-14T11:06:50.867Z,9.40
2024-03-14T11:09:19.029Z,8.40
2024-03-14T11:11:47.075Z,9.80
2024-03-14T11:14:15.259Z,10.30
2024-03-14T11:16:45.285Z,9.20
2024-03-14T11:19:16.266Z,10.20
2024-03-14T11:21:43.816Z,8.50
2024-03-14T11:24:13.859Z,9.60
2024-03-14T11:26:44.791Z,9.60
2024-03-14T11:29:15.662Z,10.80
2024-03-14T11:31:43.745Z,15.50
2024-03-14T11:34:18.890Z,8.50
2024-03-14T11:36:50.195Z,9.40
2024-03-14T11:39:22.272Z,10.20
2024-03-14T11:41:50.555Z,9.10
2024-03-14T11:44:21.233Z,10.10
2024-03-14T11:46:50.503Z,9.40
2024-03-14T11:49:18.151Z,10.20
2024-03-14T11:51:49.218Z,8.80
2024-03-14T11:54:22.413Z,9.50
2024-03-14T11:56:50.112Z,9.00
2024-03-14T11:59:18.031Z,9.20
2024-03-14T12:01:51.068Z,9.70
2024-03-14T12:04:19.382Z,10.40
2024-03-14T12:06:51.000Z,9.60
2024-03-14T12:09:23.673Z,9.80
2024-03-14T12:11:51.558Z,8.90
2024-03-14T12:14:19.910Z,8.60
2024-03-14T12:16:48.418Z,8.70
2024-03-14T12:19:19.674Z,9.10
2024-03-14T12:21:50.649Z,9.50
2024-03-14T12:24:18.074Z,10.10
2024-03-14T12:26:45.792Z,9.40
2024-03-14T12:29:13.277Z,9.70
2024-03-14T12:31:42.257Z,9.50
2024-03-14T12:34:09.833Z,11.10
2024-03-14T12:36:40.520Z,9.90
2024-03-14T12:39:08.642Z,8.90
2024-03-14T12:41:38.133Z,9.50
2024-03-14T12:44:06.139Z,9.70
2024-03-14T12:46:34.485Z,9.60
2024-03-14T12:49:02.222Z,9.30
2024-03-14T12:51:29.648Z,9.90
2024-03-14T12:53:57.759Z,9.80
2024-03-14T12:56:25.826Z,9.30
2024-03-14T12:58:56.935Z,9.00
2024-03-14T13:01:31.777Z,9.00
2024-03-14T13:04:00.335Z,8.20
2024-03-14T13:06:29.809Z,9.60
2024-03-14T13:09:17.474Z,10.10
2024-03-14T13:12:05.206Z,10.60
2024-03-14T13:14:33.233Z,10.50
2024-03-14T13:17:07.815Z,10.20
2024-03-14T13:19:37.270Z,9.90
2024-03-14T13:22:05.596Z,9.80
2024-03-14T13:24:34.247Z,9.20
2024-03-14T13:27:04.185Z,10.40
2024-03-14T13:29:31.895Z,9.60
2024-03-14T13:32:02.422Z,9.20
2024-03-14T13:34:32.835Z,10.40
2024-03-14T13:37:02.029Z,9.80
2024-03-14T13:39:29.940Z,10.20
2024-03-14T13:41:59.571Z,9.70
2024-03-14T13:44:27.373Z,9.70
2024-03-14T13:46:54.852Z,10.60
2024-03-14T13:49:22.374Z,10.90
2024-03-14T13:51:49.856Z,10.40
2024-03-14T13:54:25.724Z,10.70
2024-03-14T13:56:55.850Z,11.30
2024-03-14T13:59:24.020Z,10.60
2024-03-14T14:01:52.948Z,9.90
2024-03-14T14:04:22.296Z,9.80
2024-03-14T14:06:49.819Z,10.90
2024-03-14T14:09:17.756Z,9.20
2024-03-14T14:11:45.331Z,10.50
2024-03-14T14:14:17.507Z,10.40
2024-03-14T14:16:45.132Z,10.20
2024-03-14T14:19:12.520Z,9.70
2024-03-14T14:21:40.479Z,11.20
2024-03-14T14:24:11.077Z,10.20
2024-03-14T14:26:38.576Z,10.10
2024-03-14T14:29:06.315Z,11.10
2024-03-14T14:31:33.876Z,10.60
2024-03-14T14:34:01.379Z,9.90
2024-03-14T14:36:29.009Z,10.60
2024-03-14T14:38:56.509Z,9.80
2024-03-14T14:41:23.926Z,9.60
2024-03-14T14:43:52.288Z,8.80
2024-03-14T14:46:19.771Z,9.40
2024-03-14T14:48:47.585Z,10.60
2024-03-14T14:51:15.414Z,11.00
2024-03-14T14:53:42.982Z,10.40
2024-03-14T14:56:16.938Z,11.90
2024-03-14T14:58:46.910Z,10.30
2024-03-14T15:01:17.147Z,11.20
2024-03-14T15:03:46.091Z,11.10
2024-03-14T15:06:14.131Z,11.70
2024-03-14T15:08:47.005Z,13.30
2024-03-14T15:11:16.311Z,11.20
2024-03-14T15:13:44.311Z,11.80
2024-03-14T15:16:12.636Z,12.00
2024-03-14T15:18:41.573Z,11.40
2024-03-14T15:21:12.115Z,10.10
2024-03-14T15:23:39.990Z,10.70
2024-03-14T15:26:09.803Z,10.30
2024-03-14T15:28:37.414Z,10.00
2024-03-14T15:31:05.114Z,9.90
2024-03-14T15:33:32.974Z,10.80
2024-03-14T15:36:00.754Z,11.00
2024-03-14T15:38:29.155Z,10.50
2024-03-14T15:40:56.898Z,9.60
2024-03-14T15:43:24.357Z,11.30
2024-03-14T15:45:53.002Z,10.80
2024-03-14T15:48:25.148Z,10.10
2024-03-14T15:50:52.800Z,10.40
2024-03-14T15:53:20.210Z,10.60
2024-03-14T15:55:47.684Z,11.40
2024-03-14T15:58:15.594Z,12.00
2024-03-14T16:00:43.405Z,12.20
2024-03-14T16:03:11.895Z,11.00
2024-03-14T16:05:40.095Z,11.40
2024-03-14T16:08:10.977Z,11.20
2024-03-14T16:10:39.839Z,11.50
2024-03-14T16:13:08.128Z,10.60
2024-03-14T16:15:36.238Z,12.90
2024-03-14T16:18:05.414Z,12.30
2024-03-14T16:20:35.891Z,12.70
2024-03-14T16:23:05.881Z,11.60
2024-03-14T16:25:37.276Z,11.30
2024-03-14T16:28:05.537Z,10.70
2024-03-14T16:30:33.339Z,10.80
2024-03-14T16:33:01.455Z,11.50
2024-03-14T16:35:36.085Z,9.80
2024-03-14T16:38:04.114Z,11.40
2024-03-14T16:40:32.952Z,10.80
2024-03-14T16:43:00.918Z,10.60
2024-03-14T16:45:33.812Z,11.50
2024-03-14T16:48:04.677Z,11.50
2024-03-14T16:50:32.992Z,10.90
2024-03-14T16:53:00.660Z,10.80
2024-03-14T16:55:30.669Z,12.00
2024-03-14T16:58:01.598Z,11.10
2024-03-14T17:00:32.503Z,12.00
2024-03-14T17:03:01.224Z,11.40
2024-03-14T17:05:30.421Z,11.30
2024-03-14T17:07:58.382Z,12.30
2024-03-14T17:10:27.004Z,10.90
2024-03-14T17:13:03.339Z,11.70
2024-03-14T17:15:32.288Z,10.70
2024-03-14T17:18:00.260Z,11.20
2024-03-14T17:20:28.324Z,11.10
2024-03-14T17:22:58.404Z,11.60
2024-03-14T17:25:25.983Z,10.90
2024-03-14T17:27:56.180Z,11.20
2024-03-14T17:30:28.746Z,11.60
2024-03-14T17:32:57.327Z,11.50
2024-03-14T17:35:27.133Z,11.40
2024-03-14T17:37:54.520Z,11.80
2024-03-14T17:40:22.058Z,12.10
2024-03-14T17:42:49.678Z,12.60
2024-03-14T17:45:24.048Z,12.00
2024-03-14T17:47:53.042Z,13.20
2024-03-14T17:50:21.477Z,13.00
2024-03-14T17:52:50.635Z,12.40
2024-03-14T17:55:18.539Z,13.70
2024-03-14T17:57:46.908Z,12.50
2024-03-14T18:00:18.280Z,12.60
2024-03-14T18:02:48.560Z,14.00
2024-03-14T18:05:17.924Z,14.40
2024-03-14T18:07:47.474Z,13.20
2024-03-14T18:10:17.511Z,13.60
2024-03-14T18:12:47.146Z,13.20
2024-03-14T18:15:18.552Z,12.10
2024-03-14T18:17:47.022Z,12.30
2024-03-14T18:20:15.020Z,12.60
2024-03-14T18:22:43.221Z,12.70
2024-03-14T18:25:11.462Z,13.50
2024-03-14T18:27:39.174Z,13.40
2024-03-14T18:30:14.537Z,13.30
2024-03-14T18:32:45.350Z,16.20
2024-03-14T18:35:22.878Z,33.20
2024-03-14T18:37:51.600Z,19.80
2024-03-14T18:40:20.288Z,21.50
2024-03-14T18:42:49.311Z,15.30
2024-03-14T18:45:18.451Z,15.50
2024-03-14T18:47:46.853Z,14.30
2024-03-14T18:50:14.554Z,14.80
2024-03-14T18:52:42.166Z,13.80
2024-03-14T18:55:12.700Z,15.20
2024-03-14T18:57:40.749Z,15.20
2024-03-14T19:00:20.022Z,15.70
2024-03-14T19:02:49.732Z,16.00
2024-03-14T19:05:19.568Z,16.00
2024-03-14T19:07:46.991Z,16.50
2024-03-14T19:10:15.336Z,18.80
2024-03-14T19:12:42.906Z,19.20
2024-03-14T19:15:13.165Z,19.30
2024-03-14T19:17:44.082Z,19.80
2024-03-14T19:20:13.774Z,21.10
2024-03-14T19:22:41.527Z,22.70
2024-03-14T19:25:11.405Z,23.70
2024-03-14T19:27:39.569Z,25.00
2024-03-14T19:30:10.132Z,25.40
2024-03-14T19:32:38.041Z,24.20
2024-03-14T19:35:06.656Z,23.70
2024-03-14T19:37:34.349Z,24.40
2024-03-14T19:40:03.048Z,23.70
2024-03-14T19:42:30.649Z,20.20
2024-03-14T19:44:58.684Z,19.70
2024-03-14T19:47:27.055Z,20.30
2024-03-14T19:49:55.365Z,19.60
2024-03-14T19:52:22.813Z,20.70
2024-03-14T19:54:52.682Z,23.20
2024-03-14T19:57:20.127Z,23.30
2024-03-14T19:59:48.138Z,23.50
2024-03-14T20:02:16.631Z,25.10
2024-03-14T20:04:45.880Z,22.90
2024-03-14T20:07:13.915Z,22.70
2024-03-14T20:09:41.433Z,21.10
2024-03-14T20:12:09.877Z,20.60
2024-03-14T20:14:37.749Z,20.90
2024-03-14T20:17:05.178Z,18.70
2024-03-14T20:19:32.613Z,18.10
2024-03-14T20:22:00.028Z,19.80
2024-03-14T20:24:27.749Z,19.30
2024-03-14T20:26:55.976Z,20.30
2024-03-14T20:29:24.915Z,18.20
2024-03-14T20:31:52.337Z,16.30
2024-03-14T20:34:22.872Z,18.40
2024-03-14T20:36:50.561Z,21.00
2024-03-14T20:39:23.740Z,18.20
2024-03-14T20:41:52.321Z,18.60
2024-03-14T20:44:19.804Z,18.80
2024-03-14T20:46:47.910Z,20.40
2024-03-14T20:49:15.976Z,20.40
2024-03-14T20:51:44.697Z,19.60
2024-03-14T20:54:12.414Z,19.50
2024-03-14T20:56:43.503Z,18.80
2024-03-14T20:59:13.002Z,19.40
2024-03-14T21:01:40.441Z,18.30
2024-03-14T21:04:11.202Z,17.90
2024-03-14T21:06:39.418Z,19.30
2024-03-14T21:09:09.371Z,18.30
2024-03-14T21:11:39.245Z,18.00
2024-03-14T21:14:07.178Z,16.60
2024-03-14T21:16:36.556Z,16.40
2024-03-14T21:19:04.753Z,15.80
2024-03-14T21:21:32.607Z,17.00
2024-03-14T21:24:03.207Z,17.80
2024-03-14T21:26:31.159Z,16.90
2024-03-14T21:29:01.193Z,16.70
2024-03-14T21:31:31.293Z,18.10
2024-03-14T21:33:59.562Z,18.10
2024-03-14T21:36:28.400Z,18.90
2024-03-14T21:38:56.471Z,17.30
2024-03-14T21:41:26.885Z,17.70
2024-03-14T21:43:58.084Z,18.90
2024-03-14T21:46:26.107Z,18.30
2024-03-14T21:48:53.787Z,20.30
2024-03-14T21:51:21.541Z,22.70
2024-03-14T21:53:49.998Z,32.30
2024-03-14T21:56:17.468Z,35.20
2024-03-14T21:58:53.172Z,31.50
2024-03-14T22:01:22.239Z,29.40
2024-03-14T22:03:50.131Z,26.90
2024-03-14T22:06:17.842Z,27.80
2024-03-14T22:08:45.357Z,27.00
2024-03-14T22:11:13.564Z,25.70
2024-03-14T22:13:42.873Z,21.70
2024-03-14T22:16:11.797Z,21.60
2024-03-14T22:18:39.595Z,20.50
2024-03-14T22:21:08.191Z,20.90
2024-03-14T22:23:35.887Z,18.80
2024-03-14T22:26:03.527Z,19.40
2024-03-14T22:28:32.869Z,21.20
2024-03-14T22:31:10.286Z,20.50
2024-03-14T22:33:41.294Z,22.60
2024-03-14T22:36:09.732Z,20.90
2024-03-14T22:38:38.077Z,19.50
2024-03-14T22:41:09.337Z,18.70
2024-03-14T22:43:41.075Z,17.30
2024-03-14T22:46:10.211Z,16.90
2024-03-14T22:48:37.941Z,18.60
2024-03-14T22:51:05.699Z,15.90
2024-03-14T22:53:33.492Z,19.40
2024-03-14T22:56:00.965Z,19.90
2024-03-14T22:58:28.954Z,19.30
2024-03-14T23:00:58.836Z,19.50
2024-03-14T23:05:22.971Z,19.70
2024-03-14T23:07:50.355Z,18.20
2024-03-14T23:10:17.632Z,17.90
2024-03-14T23:12:44.947Z,19.30
2024-03-14T23:15:12.476Z,18.30
2024-03-14T23:17:40.658Z,17.20
2024-03-14T23:20:11.026Z,17.00
2024-03-14T23:22:38.332Z,16.50
2024-03-14T23:25:09.132Z,17.30
2024-03-14T23:27:37.155Z,17.60
2024-03-14T23:30:05.204Z,19.00
2024-03-14T23:32:33.386Z,19.50
2024-03-14T23:35:00.735Z,18.20
2024-03-14T23:37:28.122Z,17.90
2024-03-14T23:39:55.360Z,17.00
2024-03-14T23:42:43.393Z,17.50
2024-03-14T23:45:10.793Z,16.60
2024-03-14T23:47:39.789Z,16.90
2024-03-14T23:50:09.519Z,16.80
2024-03-14T23:52:36.897Z,16.80
2024-03-14T23:55:05.510Z,17.90
2024-03-14T23:57:32.816Z,16.40
